Time;durP1;ratioP1;P1;durP2;ratioP2;P2;SDS_P1;SDS_P2;PMS_P1;PMS_P2;Temp;Humidity;BMP_temperature;BMP_pressure;BME280_temperature;BME280_humidity;BME280_pressure;Samples;Min_cycle;Max_cycle;Signal;HPM_P1;HPM_P2
2022/09/18 00:01:09;;;;;;;4.03;2.10;;;;;;;20.60;95.80;100624.69;6277639;22;20431;-94
2022/09/18 00:08:21;;;;;;;6.33;2.13;;;;;;;20.56;95.63;100631.91;6277859;22;20374;-95
2022/09/18 00:14:47;;;;;;;6.20;2.90;;;;;;;20.49;96.13;100628.50;6282044;22;20432;-95
2022/09/18 00:17:16;;;;;;;4.77;2.03;;;;;;;20.34;96.64;100606.09;6228004;22;20412;-96
2022/09/18 00:19:45;;;;;;;7.50;2.70;;;;;;;20.44;96.55;100613.72;6206705;22;20445;-95
2022/09/18 00:22:23;;;;;;;4.90;1.97;;;;;;;20.43;96.34;100620.34;6207145;22;20414;-96
2022/09/18 00:24:51;;;;;;;5.83;1.97;;;;;;;20.37;96.50;100613.09;6231105;22;20417;-95
2022/09/18 00:27:40;;;;;;;8.47;2.70;;;;;;;20.27;96.58;100586.88;6203931;22;20498;-95
2022/09/18 00:30:12;;;;;;;4.90;2.27;;;;;;;20.28;96.78;100596.03;6203862;22;20468;-95
2022/09/18 00:32:57;;;;;;;9.20;2.20;;;;;;;20.20;97.14;100588.19;6207135;22;20409;-95
2022/09/18 00:35:42;;;;;;;6.30;2.70;;;;;;;20.31;97.47;100595.50;6257515;22;20825;-95
2022/09/18 00:38:14;;;;;;;6.17;2.90;;;;;;;20.19;97.88;100590.13;6229154;22;20437;-96
2022/09/18 00:40:47;;;;;;;7.00;2.50;;;;;;;20.13;98.03;100579.22;6228328;22;20938;-96
2022/09/18 00:43:28;;;;;;;7.23;3.50;;;;;;;20.19;97.94;100603.16;6252848;22;20409;-96
2022/09/18 00:46:14;;;;;;;6.90;2.40;;;;;;;20.18;97.54;100604.25;6205784;22;20416;-95
2022/09/18 00:52:12;;;;;;;4.43;2.60;;;;;;;19.98;96.96;100579.91;6281695;22;20412;-95
2022/09/18 00:54:52;;;;;;;6.57;2.30;;;;;;;19.92;96.96;100581.75;6233063;22;20410;-95
2022/09/18 00:57:45;;;;;;;5.10;2.00;;;;;;;19.96;96.71;100588.47;6204731;22;20409;-96
2022/09/18 01:00:18;;;;;;;9.30;2.03;;;;;;;19.93;96.48;100591.75;6255470;22;20417;-89
2022/09/18 01:03:03;;;;;;;9.33;1.80;;;;;;;19.90;96.96;100589.50;6250655;22;20414;-88
2022/09/18 01:05:51;;;;;;;8.80;2.00;;;;;;;19.87;96.50;100584.47;6250664;22;20916;-89
2022/09/18 01:08:36;;;;;;;10.13;2.40;;;;;;;19.82;97.15;100584.41;6226810;22;20393;-89
2022/09/18 01:14:47;;;;;;;12.97;3.00;;;;;;;19.85;97.78;100575.56;6275850;22;20401;-89
2022/09/18 01:17:18;;;;;;;4.00;2.50;;;;;;;19.85;97.81;100581.13;6276216;22;20398;-88
2022/09/18 01:19:50;;;;;;;8.40;1.87;;;;;;;19.86;98.13;100585.56;6249358;22;20438;-89
2022/09/18 01:22:52;;;;;;;5.17;2.17;;;;;;;19.86;98.15;100580.03;6249664;22;20414;-88
2022/09/18 01:25:49;;;;;;;5.47;2.10;;;;;;;19.85;97.81;100581.13;6277038;22;20417;-89
2022/09/18 01:28:39;;;;;;;6.60;2.33;;;;;;;19.83;98.16;100582.47;6225095;22;20477;-88
2022/09/18 01:31:29;;;;;;;7.20;2.67;;;;;;;19.79;98.14;100578.56;6249973;22;20393;-88
2022/09/18 01:34:04;;;;;;;5.37;2.50;;;;;;;19.76;98.58;100585.47;6224462;22;20451;-89
2022/09/18 01:36:42;;;;;;;4.43;2.40;;;;;;;19.75;98.17;100583.78;6249924;22;20417;-88
2022/09/18 01:39:29;;;;;;;10.73;2.33;;;;;;;19.67;98.39;100568.41;6250147;22;20425;-89
2022/09/18 01:42:00;;;;;;;5.60;2.33;;;;;;;19.69;98.24;100576.47;6251749;22;20836;-89
2022/09/18 01:44:28;;;;;;;7.00;2.03;;;;;;;19.67;97.74;100579.50;6199360;22;20398;-89
2022/09/18 01:47:01;;;;;;;9.03;2.17;;;;;;;19.68;97.99;100583.13;6224900;22;20714;-89
2022/09/18 01:49:32;;;;;;;4.83;1.90;;;;;;;19.61;98.16;100571.41;6249234;22;20398;-89
2022/09/18 01:52:58;;;;;;;9.37;2.27;;;;;;;19.65;98.14;100572.53;6200266;22;20865;-89
2022/09/18 01:55:35;;;;;;;2.90;2.10;;;;;;;19.62;98.35;100573.94;6202676;22;20455;-89
2022/09/18 01:58:16;;;;;;;3.07;1.93;;;;;;;19.59;98.14;100571.66;6248013;22;20398;-89
2022/09/18 02:00:47;;;;;;;6.93;2.23;;;;;;;19.57;97.87;100567.47;6275378;22;20395;-89
2022/09/18 02:03:22;;;;;;;7.13;2.20;;;;;;;19.54;98.26;100562.44;6250575;22;20406;-89
2022/09/18 02:06:11;;;;;;;4.53;2.00;;;;;;;19.54;98.88;100556.88;6226614;22;20416;-89
2022/09/18 02:09:10;;;;;;;9.73;2.10;;;;;;;19.52;98.96;100561.84;6227148;22;20904;-89
2022/09/18 02:11:45;;;;;;;4.47;2.10;;;;;;;19.47;98.68;100558.97;6230836;22;20409;-88
2022/09/18 02:14:18;;;;;;;8.83;2.37;;;;;;;19.47;98.47;100559.81;6202887;22;20425;-88
2022/09/18 02:16:57;;;;;;;3.83;1.80;;;;;;;19.43;98.25;100566.16;6226815;22;20390;-88
2022/09/18 02:19:31;;;;;;;4.47;2.17;;;;;;;19.38;97.89;100563.28;6227307;22;20754;-88
2022/09/18 02:22:06;;;;;;;3.80;2.10;;;;;;;19.36;98.09;100568.25;6201397;22;20929;-89
2022/09/18 02:24:40;;;;;;;8.53;2.30;;;;;;;19.35;98.31;100561.03;6251503;22;20416;-88
2022/09/18 02:27:16;;;;;;;3.20;2.17;;;;;;;19.33;98.61;100559.34;6202316;22;20447;-89
2022/09/18 02:29:45;;;;;;;5.73;2.07;;;;;;;19.32;98.47;100565.16;6226930;22;20452;-88
2022/09/18 02:32:17;;;;;;;3.20;1.90;;;;;;;19.29;98.70;100557.34;6201409;22;20489;-89
2022/09/18 02:34:51;;;;;;;3.77;1.63;;;;;;;19.23;98.22;100556.44;6203104;22;20447;-88
2022/09/18 02:37:53;;;;;;;10.93;2.13;;;;;;;19.22;97.98;100565.84;6201598;22;20397;-91
2022/09/18 02:40:46;;;;;;;4.30;2.17;;;;;;;19.19;98.17;100560.81;6251205;22;20390;-90
2022/09/18 02:43:53;;;;;;;2.90;1.90;;;;;;;19.16;98.30;100566.88;6250552;22;20409;-89
2022/09/18 02:46:28;;;;;;;7.13;2.70;;;;;;;19.15;98.53;100573.50;6225753;22;20409;-89
2022/09/18 02:49:31;;;;;;;5.60;2.27;;;;;;;19.07;98.48;100562.84;6251616;22;20381;-89
2022/09/18 02:52:05;;;;;;;3.10;1.90;;;;;;;19.07;98.74;100562.84;6251040;22;20397;-89
2022/09/18 02:54:45;;;;;;;5.77;2.10;;;;;;;19.08;98.55;100574.75;6226162;22;20412;-89
2022/09/18 02:57:16;;;;;;;3.90;2.00;;;;;;;19.07;98.80;100576.69;6251797;22;20414;-90
2022/09/18 02:59:46;;;;;;;4.07;1.83;;;;;;;19.03;98.31;100570.00;6201621;22;20964;-89
2022/09/18 03:02:15;;;;;;;6.20;2.00;;;;;;;19.00;98.28;100577.97;6226940;22;20387;-89
2022/09/18 03:04:44;;;;;;;3.33;2.03;;;;;;;18.92;98.21;100566.22;6196113;23;20433;-89
2022/09/18 03:07:13;;;;;;;4.73;2.20;;;;;;;18.88;98.38;100565.03;6171694;23;20410;-89
2022/09/18 03:09:43;;;;;;;4.47;2.10;;;;;;;18.87;98.74;100562.53;6196048;23;20788;-89
2022/09/18 03:12:11;;;;;;;6.03;1.97;;;;;;;18.83;98.87;100570.53;6171527;23;20734;-90
2022/09/18 03:14:42;;;;;;;5.43;1.90;;;;;;;18.78;98.70;100552.97;6221222;22;20403;-90
2022/09/18 03:17:10;;;;;;;5.17;2.20;;;;;;;18.72;98.75;100553.97;6170976;23;20403;-89
2022/09/18 03:19:38;;;;;;;3.07;1.80;;;;;;;18.69;98.47;100554.47;6171330;23;20447;-89
2022/09/18 03:22:06;;;;;;;4.97;2.77;;;;;;;18.65;99.13;100554.16;6170499;23;20449;-89
2022/09/18 03:24:34;;;;;;;5.37;2.07;;;;;;;18.63;99.11;100551.66;6220594;23;20514;-89
2022/09/18 03:27:04;;;;;;;4.00;2.00;;;;;;;18.62;99.23;100544.44;6220394;23;20984;-89
2022/09/18 03:29:34;;;;;;;7.93;2.80;;;;;;;18.62;99.32;100549.97;6195031;23;20403;-89
2022/09/18 03:32:04;;;;;;;4.20;2.10;;;;;;;18.60;99.31;100545.78;6220449;23;20403;-89
2022/09/18 03:34:31;;;;;;;6.40;2.57;;;;;;;18.62;99.74;100554.66;6195685;23;20890;-89
2022/09/18 03:37:00;;;;;;;4.47;2.03;;;;;;;18.52;99.36;100533.16;6220591;23;20733;-89
2022/09/18 03:39:29;;;;;;;6.43;2.17;;;;;;;18.60;99.41;100545.78;6195155;23;20443;-89
2022/09/18 03:41:57;;;;;;;3.80;2.00;;;;;;;18.57;99.29;100535.16;6245132;22;20406;-89
2022/09/18 03:44:26;;;;;;;4.90;2.40;;;;;;;18.53;99.47;100539.53;6220954;22;20391;-89
2022/09/18 03:46:56;;;;;;;4.27;2.13;;;;;;;18.46;99.84;100525.88;6196033;23;20411;-89
2022/09/18 03:49:26;;;;;;;2.77;1.90;;;;;;;18.49;99.00;100533.66;6220436;23;20388;-88
2022/09/18 03:51:54;;;;;;;9.43;2.00;;;;;;;18.46;99.55;100534.19;6220186;23;20415;-89
2022/09/18 03:54:21;;;;;;;11.23;2.33;;;;;;;18.37;99.73;100521.81;6195812;23;20403;-89
2022/09/18 03:56:50;;;;;;;7.87;2.20;;;;;;;18.42;99.34;100530.22;6182477;23;20403;-89
2022/09/18 03:59:20;;;;;;;5.93;2.20;;;;;;;18.43;99.53;100539.38;6170359;23;20431;-89
2022/09/18 04:01:47;;;;;;;5.43;2.40;;;;;;;18.41;99.99;100531.31;6219478;23;20399;-89
2022/09/18 04:04:15;;;;;;;4.33;2.10;;;;;;;18.34;100.00;100516.78;6184975;22;20442;-89
2022/09/18 04:06:43;;;;;;;6.13;2.40;;;;;;;18.40;99.99;100537.94;6224084;22;20397;-89
2022/09/18 04:09:10;;;;;;;3.43;2.40;;;;;;;18.37;99.69;100535.66;6225068;22;20402;-89
2022/09/18 04:11:38;;;;;;;3.90;1.80;;;;;;;18.37;99.82;100541.19;6250404;22;20393;-88
2022/09/18 04:14:06;;;;;;;4.53;2.20;;;;;;;18.36;100.00;100535.91;6225071;22;20409;-88
2022/09/18 04:16:34;;;;;;;8.20;2.33;;;;;;;18.35;100.00;100532.31;6250978;22;20725;-89
2022/09/18 04:19:03;;;;;;;4.07;2.10;;;;;;;18.36;100.00;100542.28;6249798;22;20484;-89
2022/09/18 04:21:31;;;;;;;7.87;2.37;;;;;;;18.34;99.78;100535.31;6250780;22;20456;-88
2022/09/18 04:23:59;;;;;;;5.07;2.10;;;;;;;18.27;99.94;100527.19;6225451;22;20415;-89
2022/09/18 04:26:28;;;;;;;4.90;2.20;;;;;;;18.27;99.98;100530.81;6249992;22;20939;-88
2022/09/18 04:28:55;;;;;;;3.80;2.37;;;;;;;18.23;100.00;100528.78;6225412;22;20394;-88
2022/09/18 04:31:24;;;;;;;3.47;2.00;;;;;;;18.26;99.90;100539.34;6225085;22;20382;-89
2022/09/18 04:33:53;;;;;;;2.80;1.97;;;;;;;18.24;99.83;100544.28;6275802;22;20899;-89
2022/09/18 04:36:23;;;;;;;5.10;1.93;;;;;;;18.20;99.70;100534.81;6225025;22;20398;-89
2022/09/18 04:38:51;;;;;;;8.07;2.20;;;;;;;18.16;99.23;100551.06;6275274;22;20425;-89
2022/09/18 04:41:28;;;;;;;4.57;1.90;;;;;;;18.15;99.65;100556.84;6225741;22;20398;-88
2022/09/18 04:43:59;;;;;;;3.33;2.00;;;;;;;18.11;99.43;100550.94;6274894;22;20834;-89
2022/09/18 04:46:27;;;;;;;6.57;2.00;;;;;;;18.10;99.27;100562.25;6250270;22;20398;-89
2022/09/18 04:48:55;;;;;;;3.90;2.23;;;;;;;18.06;99.18;100555.56;6225558;22;20703;-89
2022/09/18 04:51:23;;;;;;;3.47;2.03;;;;;;;17.99;99.60;100550.19;6200856;22;20433;-89
2022/09/18 04:53:50;;;;;;;8.00;2.80;;;;;;;18.05;99.98;100562.19;6224642;22;20777;-88
2022/09/18 04:56:18;;;;;;;4.10;2.23;;;;;;;18.04;100.00;100558.59;6225543;22;20391;-89
2022/09/18 04:58:46;;;;;;;6.77;2.07;;;;;;;18.05;100.00;100562.19;6225069;22;20405;-89
2022/09/18 05:01:13;;;;;;;3.60;2.23;;;;;;;17.99;99.89;100549.34;6225345;22;20881;-89
2022/09/18 05:03:41;;;;;;;2.83;2.00;;;;;;;18.02;99.80;100559.91;6224726;22;20430;-89
2022/09/18 05:06:09;;;;;;;5.07;2.30;;;;;;;18.03;100.00;100561.59;6249723;22;20926;-89
2022/09/18 05:08:37;;;;;;;4.20;1.73;;;;;;;18.01;99.88;100561.00;6225068;22;20386;-89
2022/09/18 05:11:07;;;;;;;3.77;2.03;;;;;;;18.02;100.00;100560.75;6250674;22;20873;-89
2022/09/18 05:13:38;;;;;;;3.73;2.13;;;;;;;18.00;99.83;100567.63;6275773;22;20891;-89
2022/09/18 05:16:08;;;;;;;3.20;1.80;;;;;;;17.99;100.00;100565.94;6225462;22;20406;-89
2022/09/18 05:18:35;;;;;;;3.57;2.17;;;;;;;18.01;99.80;100566.53;6275567;22;20465;-89
2022/09/18 05:21:04;;;;;;;6.73;2.10;;;;;;;17.99;99.89;100568.69;6224631;22;20438;-89
2022/09/18 05:23:33;;;;;;;4.00;2.23;;;;;;;17.98;100.00;100567.03;6224633;22;20409;-88
2022/09/18 05:26:03;;;;;;;3.57;1.80;;;;;;;17.97;99.79;100571.72;6224944;22;20398;-89
2022/09/18 05:28:33;;;;;;;5.20;1.93;;;;;;;17.92;99.61;100566.91;6274843;22;20398;-89
2022/09/18 05:31:01;;;;;;;3.70;2.00;;;;;;;17.95;100.00;100571.97;6277006;22;20448;-89
2022/09/18 05:33:31;;;;;;;3.67;2.03;;;;;;;17.92;99.99;100577.97;6224413;22;20405;-89
2022/09/18 05:36:00;;;;;;;2.60;2.00;;;;;;;17.91;99.91;100576.28;6274823;22;20747;-89
2022/09/18 05:38:28;;;;;;;4.17;1.93;;;;;;;17.87;99.87;100572.38;6226381;22;20739;-89
2022/09/18 05:40:59;;;;;;;2.90;2.00;;;;;;;17.89;100.00;100578.50;6202309;22;20425;-89
2022/09/18 05:43:27;;;;;;;3.83;2.00;;;;;;;17.88;100.00;100571.28;6227258;22;20404;-89
2022/09/18 05:45:56;;;;;;;5.23;1.90;;;;;;;17.90;100.00;100582.91;6251656;22;20429;-88
2022/09/18 05:48:23;;;;;;;4.20;2.73;;;;;;;17.87;100.00;100588.97;6226982;22;20421;-89
2022/09/18 05:50:53;;;;;;;3.50;2.10;;;;;;;17.85;100.00;100582.84;6250497;22;20406;-88
2022/09/18 05:53:20;;;;;;;5.70;2.03;;;;;;;17.86;100.00;100578.97;6276533;22;20404;-88
2022/09/18 05:55:51;;;;;;;4.33;2.30;;;;;;;17.84;100.00;100597.75;6226169;22;20425;-88
2022/09/18 05:58:19;;;;;;;7.90;1.70;;;;;;;17.80;100.00;100593.78;6278201;22;20468;-89
2022/09/18 06:00:47;;;;;;;6.07;1.70;;;;;;;17.83;99.88;100604.34;6226436;22;20473;-89
2022/09/18 06:03:15;;;;;;;5.10;2.27;;;;;;;17.81;100.00;100606.53;6226504;22;20908;-89
2022/09/18 06:05:50;;;;;;;3.03;2.20;;;;;;;17.82;100.00;100610.13;6226652;22;20474;-89
2022/09/18 06:08:18;;;;;;;3.23;2.10;;;;;;;17.80;100.00;100609.53;6228481;22;20386;-89
2022/09/18 06:10:46;;;;;;;4.57;2.17;;;;;;;17.82;99.76;100621.19;6201530;22;20394;-89
2022/09/18 06:13:16;;;;;;;5.33;2.40;;;;;;;17.80;100.00;100621.44;6201387;22;20911;-89
2022/09/18 06:15:45;;;;;;;4.53;1.93;;;;;;;17.80;99.98;100626.97;6227225;22;20489;-89
2022/09/18 06:18:13;;;;;;;2.87;2.00;;;;;;;17.76;100.00;100619.38;6201576;22;20463;-88
2022/09/18 06:20:43;;;;;;;3.20;2.30;;;;;;;17.78;100.00;100620.81;6227141;22;20429;-88
2022/09/18 06:23:11;;;;;;;6.37;2.17;;;;;;;17.80;100.00;100624.19;6202333;22;20473;-89
2022/09/18 06:25:40;;;;;;;4.87;2.30;;;;;;;17.81;100.00;100634.16;6201510;22;20406;-89
2022/09/18 06:28:09;;;;;;;9.07;3.10;;;;;;;17.81;100.00;100636.09;6251835;22;20410;-89
2022/09/18 06:30:46;;;;;;;5.97;2.43;;;;;;;17.81;100.00;100636.94;6278310;22;20408;-88
2022/09/18 06:33:14;;;;;;;3.93;2.60;;;;;;;17.82;100.00;100637.78;6226154;22;20406;-89
2022/09/18 06:35:47;;;;;;;8.43;2.53;;;;;;;17.76;100.00;100635.97;6225864;22;20405;-89
2022/09/18 06:38:15;;;;;;;6.03;2.80;;;;;;;17.85;100.00;100654.72;6227898;22;20710;-89
2022/09/18 06:40:50;;;;;;;9.60;2.93;;;;;;;17.89;100.00;100653.16;6226833;22;20442;-89
2022/09/18 06:43:17;;;;;;;9.67;2.20;;;;;;;17.91;100.00;100645.44;6225117;22;20413;-89
2022/09/18 06:45:53;;;;;;;4.77;2.50;;;;;;;17.98;100.00;100652.75;6200751;22;20406;-89
2022/09/18 06:48:24;;;;;;;5.93;2.73;;;;;;;17.98;100.00;100653.59;6226057;22;20401;-89
2022/09/18 06:50:58;;;;;;;5.47;3.13;;;;;;;18.07;100.00;100662.38;6201020;22;20743;-89
2022/09/18 06:53:27;;;;;;;11.70;4.10;;;;;;;18.24;100.00;100661.34;6226312;22;20496;-89
2022/09/18 06:55:58;;;;;;;9.00;4.20;;;;;;;18.46;100.00;100655.94;6226550;22;20409;-88
2022/09/18 06:58:26;;;;;;;9.63;3.40;;;;;;;18.66;100.00;100666.59;6202007;22;20800;-89
2022/09/18 07:00:58;;;;;;;13.00;3.60;;;;;;;18.84;100.00;100660.00;6201048;22;20452;-89
2022/09/18 07:03:26;;;;;;;9.07;4.40;;;;;;;19.01;100.00;100660.84;6250907;22;20798;-89
2022/09/18 07:05:54;;;;;;;12.00;4.50;;;;;;;19.14;100.00;100659.66;6226137;22;20406;-89
2022/09/18 07:08:22;;;;;;;8.03;3.73;;;;;;;19.25;100.00;100665.09;6201580;22;20402;-88
2022/09/18 07:10:49;;;;;;;10.50;4.50;;;;;;;19.34;100.00;100657.19;6226693;22;20402;-89
2022/09/18 07:13:18;;;;;;;8.00;3.63;;;;;;;19.48;100.00;100669.59;6225694;22;20416;-89
2022/09/18 07:15:47;;;;;;;9.63;4.17;;;;;;;19.57;100.00;100670.06;6251782;22;20465;-89
2022/09/18 07:18:16;;;;;;;15.70;4.30;;;;;;;19.64;100.00;100668.75;6200681;22;20398;-89
2022/09/18 07:20:44;;;;;;;7.87;3.70;;;;;;;19.78;100.00;100673.97;6225578;22;20449;-89
2022/09/18 07:23:14;;;;;;;12.10;4.13;;;;;;;19.92;100.00;100684.41;6201257;22;20404;-89
2022/09/18 07:25:42;;;;;;;16.10;4.20;;;;;;;20.04;100.00;100677.88;6277556;22;20892;-89
2022/09/18 07:28:10;;;;;;;8.30;4.13;;;;;;;20.15;100.00;100668.59;6201629;22;20398;-88
2022/09/18 07:30:40;;;;;;;11.40;4.70;;;;;;;20.23;100.00;100673.69;6201136;22;20382;-89
2022/09/18 07:33:10;;;;;;;14.90;4.50;;;;;;;20.37;100.00;100677.78;6251073;22;20426;-89
2022/09/18 07:35:40;;;;;;;8.90;4.47;;;;;;;20.52;100.00;100686.28;6257339;22;20390;-89
2022/09/18 07:38:10;;;;;;;9.37;3.83;;;;;;;20.64;100.00;100678.63;6254712;22;20443;-89
2022/09/18 07:40:40;;;;;;;11.07;4.70;;;;;;;20.72;100.00;100674.56;6225390;22;20434;-88
2022/09/18 07:43:11;;;;;;;6.87;3.17;;;;;;;20.83;100.00;100681.03;6201284;22;20892;-88
2022/09/18 07:45:40;;;;;;;9.20;4.03;;;;;;;20.90;100.00;100681.66;6251152;22;20402;-89
2022/09/18 07:48:08;;;;;;;10.17;3.60;;;;;;;20.98;100.00;100684.78;6251407;22;20456;-89
2022/09/18 07:50:37;;;;;;;11.13;3.60;;;;;;;21.07;100.00;100687.09;6200656;22;20443;-90
2022/09/18 07:53:07;;;;;;;13.37;3.80;;;;;;;21.14;100.00;100691.34;6250633;22;20394;-89
2022/09/18 07:55:35;;;;;;;11.73;3.00;;;;;;;21.18;100.00;100695.25;6202254;22;20417;-89
2022/09/18 07:58:05;;;;;;;6.20;3.40;;;;;;;21.25;100.00;100698.69;6200747;22;20417;-89
2022/09/18 08:00:36;;;;;;;13.70;3.67;;;;;;;21.33;100.00;100698.19;6201414;22;20525;-89
2022/09/18 08:03:12;;;;;;;6.87;3.07;;;;;;;21.42;100.00;100701.31;6201371;22;20402;-89
2022/09/18 08:05:42;;;;;;;9.40;3.50;;;;;;;21.51;100.00;100701.66;6251097;22;20460;-89
2022/09/18 08:08:12;;;;;;;10.27;3.30;;;;;;;21.56;100.00;100679.41;6226139;22;20386;-89
2022/09/18 08:10:42;;;;;;;11.53;3.30;;;;;;;21.70;100.00;100686.22;6200849;22;20931;-90
2022/09/18 08:13:10;;;;;;;9.30;2.93;;;;;;;21.79;99.77;100692.94;6201198;22;20483;-89
2022/09/18 08:15:41;;;;;;;8.83;2.83;;;;;;;21.85;99.58;100694.66;6224808;22;20738;-89
2022/09/18 08:18:10;;;;;;;7.67;3.17;;;;;;;21.95;99.55;100699.41;6276742;22;20413;-90
2022/09/18 08:20:40;;;;;;;6.70;3.47;;;;;;;22.04;99.12;100687.53;6225963;22;20496;-89
2022/09/18 08:23:09;;;;;;;15.70;3.50;;;;;;;22.15;98.77;100693.97;6201076;22;20861;-89
2022/09/18 08:25:37;;;;;;;8.93;3.83;;;;;;;22.28;98.36;100695.44;6200987;22;20382;-89
2022/09/18 08:28:06;;;;;;;6.07;3.20;;;;;;;22.35;97.84;100696.84;6250872;22;20766;-88
2022/09/18 08:30:44;;;;;;;7.30;3.23;;;;;;;22.46;97.29;100700.50;6250547;22;20395;-88
2022/09/18 08:33:12;;;;;;;9.43;2.73;;;;;;;22.53;96.66;100698.28;6250268;22;20778;-89
2022/09/18 08:35:41;;;;;;;6.40;2.80;;;;;;;22.59;96.37;100711.13;6201625;22;20444;-89
2022/09/18 08:38:10;;;;;;;10.20;3.00;;;;;;;22.64;95.78;100711.16;6200453;22;20405;-90
2022/09/18 08:40:41;;;;;;;6.57;3.13;;;;;;;22.73;95.68;100717.84;6220195;22;20508;-89
2022/09/18 08:43:54;;;;;;;12.43;2.90;;;;;;;22.80;95.22;100712.06;6249695;22;20402;-89
2022/09/18 08:46:39;;;;;;;9.80;3.10;;;;;;;22.88;94.62;100724.63;6254157;22;20398;-89
2022/09/18 08:49:17;;;;;;;6.97;2.80;;;;;;;22.93;94.10;100725.44;6226297;22;20401;-88
2022/09/18 08:52:24;;;;;;;8.17;2.93;;;;;;;22.98;94.04;100717.09;6249530;22;20977;-89
2022/09/18 08:55:05;;;;;;;5.43;2.73;;;;;;;23.09;93.91;100723.53;6152787;23;20405;-89
2022/09/18 08:57:54;;;;;;;9.90;3.13;;;;;;;23.17;93.09;100728.53;6153801;23;20393;-89
2022/09/18 09:00:31;;;;;;;10.20;3.13;;;;;;;23.25;92.74;100729.97;6129316;23;20425;-90
2022/09/18 09:03:13;;;;;;;7.50;2.83;;;;;;;23.37;92.45;100739.72;6118609;23;20401;-89
2022/09/18 09:05:48;;;;;;;8.80;2.50;;;;;;;23.49;91.79;100733.00;6129720;23;20401;-89
2022/09/18 09:08:42;;;;;;;8.10;2.50;;;;;;;23.62;90.31;100738.06;6152472;23;20437;-89
2022/09/18 09:11:28;;;;;;;9.77;2.57;;;;;;;23.76;89.43;100741.94;6153253;23;20405;-89
2022/09/18 09:14:16;;;;;;;5.00;2.10;;;;;;;23.90;89.01;100737.44;6155550;23;20405;-89
2022/09/18 09:17:07;;;;;;;4.83;1.87;;;;;;;24.05;88.43;100733.81;6155467;23;20828;-88
2022/09/18 09:19:42;;;;;;;6.10;1.87;;;;;;;24.26;87.93;100740.16;6155440;23;20435;-89
2022/09/18 09:22:24;;;;;;;5.07;1.93;;;;;;;24.44;87.49;100748.75;6155674;23;20397;-89
2022/09/18 09:25:07;;;;;;;4.10;1.90;;;;;;;24.57;86.29;100747.31;6154963;23;20413;-89
2022/09/18 09:27:53;;;;;;;6.67;2.10;;;;;;;24.69;85.98;100753.41;6155653;23;20389;-89
2022/09/18 09:30:22;;;;;;;7.00;2.00;;;;;;;24.78;85.64;100754.47;6171386;22;20437;-89
2022/09/18 09:32:57;;;;;;;8.00;2.00;;;;;;;24.86;84.82;100753.00;6226419;22;20437;-89
2022/09/18 09:35:54;;;;;;;7.50;2.20;;;;;;;24.92;84.55;100748.25;6250754;22;20406;-89
2022/09/18 09:38:46;;;;;;;5.70;2.03;;;;;;;24.93;84.59;100753.53;6251698;22;20405;-88
2022/09/18 09:41:42;;;;;;;6.23;1.83;;;;;;;24.93;84.41;100756.34;6251404;22;20773;-89
2022/09/18 09:44:28;;;;;;;8.17;2.20;;;;;;;24.96;84.43;100764.19;6278360;22;20424;-89
2022/09/18 09:47:05;;;;;;;6.40;1.73;;;;;;;25.00;84.77;100761.66;6250802;22;20896;-88
2022/09/18 09:49:50;;;;;;;12.37;2.20;;;;;;;25.07;84.66;100767.75;6228209;22;20404;-89
2022/09/18 09:52:42;;;;;;;5.70;1.50;;;;;;;25.11;84.32;100764.09;6252333;22;20401;-89
2022/09/18 09:55:25;;;;;;;5.73;1.73;;;;;;;25.23;84.25;100765.66;6228125;22;20406;-90
2022/09/18 09:58:12;;;;;;;5.03;1.97;;;;;;;25.29;84.43;100778.50;6252822;22;20406;-94
2022/09/18 10:01:01;;;;;;;12.20;2.67;;;;;;;25.38;84.76;100774.81;6253026;22;20501;-95
2022/09/18 10:04:03;;;;;;;5.30;1.90;;;;;;;25.48;84.22;100769.13;6251846;22;20416;-94
2022/09/18 10:06:58;;;;;;;4.40;2.00;;;;;;;25.61;84.02;100777.97;6222982;23;20481;-95
2022/09/18 10:10:19;;;;;;;3.87;1.53;;;;;;;25.67;83.94;100776.81;6197101;23;20413;-95
2022/09/18 10:13:08;;;;;;;7.77;1.87;;;;;;;25.66;83.92;100773.19;6222769;23;20486;-94
2022/09/18 10:16:13;;;;;;;6.50;1.80;;;;;;;25.68;83.44;100775.69;6197199;23;20411;-94
2022/09/18 10:19:21;;;;;;;9.43;1.83;;;;;;;25.71;83.48;100775.13;6221863;23;20402;-95
2022/09/18 10:22:06;;;;;;;8.70;2.17;;;;;;;25.70;83.12;100760.28;6221914;23;20765;-94
2022/09/18 10:28:37;;;;;;;6.27;1.70;;;;;;;25.87;82.20;100771.03;6248245;23;20467;-94
2022/09/18 10:35:31;;;;;;;12.13;2.13;;;;;;;26.03;81.30;100764.16;6248941;23;20362;-94
2022/09/18 10:41:27;;;;;;;7.30;1.60;;;;;;;26.07;80.50;100758.78;6247777;23;20426;-92
2022/09/18 10:44:13;;;;;;;4.43;1.40;;;;;;;26.09;80.16;100757.38;6196273;23;20399;-94
2022/09/18 10:46:53;;;;;;;8.77;2.00;;;;;;;26.17;80.14;100760.66;6221885;23;20516;-93
2022/09/18 10:49:32;;;;;;;3.90;1.20;;;;;;;26.16;79.55;100757.03;6197852;23;20774;-95
2022/09/18 10:52:37;;;;;;;7.00;1.40;;;;;;;26.25;79.62;100760.00;6172830;23;20767;-93
2022/09/18 10:55:19;;;;;;;6.77;1.83;;;;;;;26.33;79.79;100748.16;6196399;23;20406;-93
2022/09/18 10:58:22;;;;;;;7.87;1.73;;;;;;;26.45;79.43;100754.16;6173649;23;20497;-94
2022/09/18 11:04:37;;;;;;;9.43;1.93;;;;;;;26.48;78.47;100742.38;6247340;22;20457;-94
2022/09/18 11:07:31;;;;;;;4.60;1.60;;;;;;;26.48;78.44;100743.19;6172361;23;20399;-93
2022/09/18 11:10:06;;;;;;;8.23;1.40;;;;;;;26.49;78.37;100746.84;6196110;23;20410;-89
2022/09/18 11:13:18;;;;;;;9.57;1.80;;;;;;;26.44;77.60;100742.13;6196719;23;20406;-93
2022/09/18 11:15:57;;;;;;;4.20;2.33;;;;;;;26.48;77.72;100739.56;6221127;23;20468;-90
2022/09/18 11:18:25;;;;;;;5.10;1.47;;;;;;;26.55;76.84;100739.19;6198042;23;20402;-91
2022/09/18 11:20:55;;;;;;;4.83;1.60;;;;;;;26.60;76.75;100728.72;6195350;23;20450;-90
2022/09/18 11:23:36;;;;;;;4.90;2.10;;;;;;;26.61;76.76;100733.19;6171540;23;20920;-90
2022/09/18 11:26:18;;;;;;;9.77;1.90;;;;;;;26.66;76.95;100735.13;6171493;23;20433;-90
2022/09/18 11:29:15;;;;;;;11.17;1.53;;;;;;;26.73;76.57;100744.84;6171641;23;20395;-90
2022/09/18 11:31:53;;;;;;;6.00;1.40;;;;;;;26.79;76.30;100732.38;6167576;23;20413;-90
2022/09/18 11:34:26;;;;;;;5.50;1.77;;;;;;;26.86;75.88;100737.63;6172676;23;20988;-90
2022/09/18 11:37:00;;;;;;;6.63;2.03;;;;;;;26.89;75.74;100736.19;6195936;23;20878;-91
2022/09/18 11:39:37;;;;;;;10.70;2.37;;;;;;;26.91;75.23;100739.53;6171981;23;20476;-90
2022/09/18 11:42:13;;;;;;;5.03;1.43;;;;;;;26.91;75.74;100733.94;6172711;23;20489;-91
2022/09/18 11:44:41;;;;;;;4.50;1.90;;;;;;;26.96;75.84;100736.66;6172156;23;20772;-91
2022/09/18 11:47:31;;;;;;;7.93;2.23;;;;;;;27.03;75.96;100731.53;6171168;23;20456;-90
2022/09/18 11:50:20;;;;;;;6.47;2.27;;;;;;;26.99;75.65;100730.44;6195204;23;20414;-90
2022/09/18 11:53:02;;;;;;;6.43;1.40;;;;;;;26.91;75.79;100731.13;6172528;23;20411;-92
2022/09/18 11:56:01;;;;;;;10.40;1.77;;;;;;;26.93;75.88;100726.03;6172568;23;20401;-92
2022/09/18 11:58:37;;;;;;;8.97;1.90;;;;;;;27.00;75.73;100737.72;6195220;23;20402;-90
2022/09/18 12:01:14;;;;;;;6.97;1.53;;;;;;;26.91;73.79;100733.94;6171285;23;20438;-90
2022/09/18 12:04:09;;;;;;;6.33;1.93;;;;;;;26.86;74.43;100736.78;6219872;22;20410;-89
2022/09/18 12:06:59;;;;;;;7.63;1.90;;;;;;;26.75;74.33;100725.72;6219691;23;20410;-94
2022/09/18 12:09:36;;;;;;;4.50;1.50;;;;;;;26.83;75.26;100727.84;6197270;23;20421;-94
2022/09/18 12:12:14;;;;;;;10.37;1.73;;;;;;;26.88;75.14;100718.53;6197507;23;20406;-92
2022/09/18 12:14:50;;;;;;;9.43;2.27;;;;;;;27.05;75.12;100723.63;6197158;23;20442;-92
2022/09/18 12:17:23;;;;;;;10.33;1.80;;;;;;;27.29;74.58;100706.69;6171767;23;20885;-90
2022/09/18 12:19:58;;;;;;;9.30;1.93;;;;;;;27.47;73.39;100709.47;6184882;23;20429;-95
2022/09/18 12:22:45;;;;;;;8.97;1.90;;;;;;;27.69;72.97;100722.03;6196239;23;20448;-92
2022/09/18 12:25:17;;;;;;;12.07;1.97;;;;;;;27.98;72.99;100719.78;6219885;23;20411;-93
2022/09/18 12:28:12;;;;;;;7.30;1.60;;;;;;;28.40;73.07;100709.41;6171344;23;20741;-93
2022/09/18 12:31:01;;;;;;;6.33;2.00;;;;;;;28.93;71.62;100705.97;6199381;23;20413;-94
2022/09/18 12:33:56;;;;;;;17.07;2.30;;;;;;;29.15;69.70;100703.19;6174620;23;20391;-93